sensor_id;sensor_type;location;lat;lon;timestamp;P1;durP1;ratioP1;P2;durP2;ratioP2
74849;SDS011;63397;47.480;19.238;2023-03-29T00:02:52;2.60;;;0.43;;
74849;SDS011;63397;47.480;19.238;2023-03-29T00:05:58;1.65;;;0.90;;
74849;SDS011;63397;47.480;19.238;2023-03-29T00:09:04;0.63;;;0.20;;
74849;SDS011;63397;47.480;19.238;2023-03-29T00:12:07;2.88;;;0.20;;
74849;SDS011;63397;47.480;19.238;2023-03-29T00:15:09;1.83;;;0.57;;
74849;SDS011;63397;47.480;19.238;2023-03-29T00:18:12;2.90;;;0.47;;
74849;SDS011;63397;47.480;19.238;2023-03-29T00:21:14;1.40;;;0.40;;
74849;SDS011;63397;47.480;19.238;2023-03-29T00:24:16;1.08;;;0.40;;
74849;SDS011;63397;47.480;19.238;2023-03-29T00:27:22;4.68;;;0.35;;
74849;SDS011;63397;47.480;19.238;2023-03-29T00:30:24;0.43;;;0.10;;
74849;SDS011;63397;47.480;19.238;2023-03-29T00:33:26;0.53;;;0.10;;
74849;SDS011;63397;47.480;19.238;2023-03-29T00:36:28;5.07;;;0.30;;
74849;SDS011;63397;47.480;19.238;2023-03-29T00:39:31;0.55;;;0.10;;
74849;SDS011;63397;47.480;19.238;2023-03-29T00:42:33;0.80;;;0.38;;
74849;SDS011;63397;47.480;19.238;2023-03-29T00:45:35;1.23;;;0.10;;
74849;SDS011;63397;47.480;19.238;2023-03-29T00:48:38;1.90;;;0.47;;
74849;SDS011;63397;47.480;19.238;2023-03-29T00:51:40;0.70;;;0.28;;
74849;SDS011;63397;47.480;19.238;2023-03-29T00:54:43;0.93;;;0.43;;
74849;SDS011;63397;47.480;19.238;2023-03-29T00:57:46;0.70;;;0.15;;
74849;SDS011;63397;47.480;19.238;2023-03-29T01:00:51;0.77;;;0.30;;
74849;SDS011;63397;47.480;19.238;2023-03-29T01:04:00;0.20;;;0.10;;
74849;SDS011;63397;47.480;19.238;2023-03-29T01:07:21;4.05;;;0.40;;
74849;SDS011;63397;47.480;19.238;2023-03-29T01:10:34;0.63;;;0.28;;
74849;SDS011;63397;47.480;19.238;2023-03-29T01:16:45;0.40;;;0.10;;
74849;SDS011;63397;47.480;19.238;2023-03-29T01:19:48;1.83;;;0.60;;
74849;SDS011;63397;47.480;19.238;2023-03-29T01:22:56;1.02;;;0.15;;
74849;SDS011;63397;47.480;19.238;2023-03-29T01:26:10;1.23;;;0.38;;
74849;SDS011;63397;47.480;19.238;2023-03-29T01:29:27;1.50;;;0.65;;
74849;SDS011;63397;47.480;19.238;2023-03-29T01:32:32;0.07;;;0.00;;
74849;SDS011;63397;47.480;19.238;2023-03-29T01:35:46;7.77;;;0.60;;
74849;SDS011;63397;47.480;19.238;2023-03-29T01:38:52;1.23;;;0.30;;
74849;SDS011;63397;47.480;19.238;2023-03-29T01:48:30;0.43;;;0.33;;
74849;SDS011;63397;47.480;19.238;2023-03-29T01:51:34;1.30;;;0.13;;
74849;SDS011;63397;47.480;19.238;2023-03-29T01:55:14;0.68;;;0.25;;
74849;SDS011;63397;47.480;19.238;2023-03-29T01:58:07;0.73;;;0.20;;
74849;SDS011;63397;47.480;19.238;2023-03-29T02:01:12;0.30;;;0.22;;
74849;SDS011;63397;47.480;19.238;2023-03-29T02:04:19;0.73;;;0.13;;
74849;SDS011;63397;47.480;19.238;2023-03-29T02:07:24;0.30;;;0.10;;
74849;SDS011;63397;47.480;19.238;2023-03-29T02:10:27;0.47;;;0.20;;
74849;SDS011;63397;47.480;19.238;2023-03-29T02:13:30;3.08;;;0.38;;
74849;SDS011;63397;47.480;19.238;2023-03-29T02:16:34;0.68;;;0.30;;
74849;SDS011;63397;47.480;19.238;2023-03-29T02:19:36;0.70;;;0.10;;
74849;SDS011;63397;47.480;19.238;2023-03-29T02:22:41;0.77;;;0.30;;
74849;SDS011;63397;47.480;19.238;2023-03-29T02:25:49;0.75;;;0.28;;
74849;SDS011;63397;47.480;19.238;2023-03-29T02:28:55;0.73;;;0.35;;
74849;SDS011;63397;47.480;19.238;2023-03-29T02:32:19;1.20;;;0.50;;
74849;SDS011;63397;47.480;19.238;2023-03-29T02:35:21;1.80;;;0.30;;
74849;SDS011;63397;47.480;19.238;2023-03-29T02:38:27;0.40;;;0.20;;
74849;SDS011;63397;47.480;19.238;2023-03-29T02:41:31;1.02;;;0.40;;
74849;SDS011;63397;47.480;19.238;2023-03-29T02:44:35;1.00;;;0.22;;
74849;SDS011;63397;47.480;19.238;2023-03-29T02:47:43;2.75;;;0.38;;
74849;SDS011;63397;47.480;19.238;2023-03-29T02:50:48;0.63;;;0.33;;
74849;SDS011;63397;47.480;19.238;2023-03-29T02:53:55;2.23;;;0.30;;
74849;SDS011;63397;47.480;19.238;2023-03-29T02:57:02;1.05;;;0.28;;
74849;SDS011;63397;47.480;19.238;2023-03-29T03:00:07;1.05;;;0.45;;
74849;SDS011;63397;47.480;19.238;2023-03-29T03:03:11;0.40;;;0.22;;
74849;SDS011;63397;47.480;19.238;2023-03-29T03:06:14;2.20;;;0.57;;
74849;SDS011;63397;47.480;19.238;2023-03-29T03:09:16;2.63;;;0.63;;
74849;SDS011;63397;47.480;19.238;2023-03-29T03:12:20;1.00;;;0.43;;
74849;SDS011;63397;47.480;19.238;2023-03-29T03:15:23;1.45;;;0.40;;
74849;SDS011;63397;47.480;19.238;2023-03-29T03:18:27;0.30;;;0.10;;
74849;SDS011;63397;47.480;19.238;2023-03-29T03:21:29;2.17;;;0.43;;
74849;SDS011;63397;47.480;19.238;2023-03-29T03:24:34;1.57;;;0.30;;
74849;SDS011;63397;47.480;19.238;2023-03-29T03:27:37;1.23;;;0.30;;
74849;SDS011;63397;47.480;19.238;2023-03-29T03:30:39;0.80;;;0.38;;
74849;SDS011;63397;47.480;19.238;2023-03-29T03:33:56;1.77;;;0.65;;
74849;SDS011;63397;47.480;19.238;2023-03-29T03:37:09;1.00;;;0.47;;
74849;SDS011;63397;47.480;19.238;2023-03-29T03:40:13;0.97;;;0.30;;
74849;SDS011;63397;47.480;19.238;2023-03-29T03:43:15;1.10;;;0.32;;
74849;SDS011;63397;47.480;19.238;2023-03-29T03:46:20;0.75;;;0.35;;
74849;SDS011;63397;47.480;19.238;2023-03-29T03:49:23;1.58;;;0.80;;
74849;SDS011;63397;47.480;19.238;2023-03-29T03:52:26;2.47;;;0.30;;
74849;SDS011;63397;47.480;19.238;2023-03-29T03:55:28;1.27;;;0.77;;
74849;SDS011;63397;47.480;19.238;2023-03-29T03:58:43;1.90;;;0.45;;
74849;SDS011;63397;47.480;19.238;2023-03-29T04:01:45;0.40;;;0.20;;
74849;SDS011;63397;47.480;19.238;2023-03-29T04:04:52;0.77;;;0.25;;
74849;SDS011;63397;47.480;19.238;2023-03-29T04:07:59;4.33;;;1.50;;
74849;SDS011;63397;47.480;19.238;2023-03-29T04:11:13;1.43;;;0.30;;
74849;SDS011;63397;47.480;19.238;2023-03-29T04:14:16;1.10;;;0.47;;
74849;SDS011;63397;47.480;19.238;2023-03-29T04:17:35;0.40;;;0.22;;
74849;SDS011;63397;47.480;19.238;2023-03-29T04:21:06;1.80;;;0.25;;
74849;SDS011;63397;47.480;19.238;2023-03-29T04:24:09;1.63;;;0.63;;
74849;SDS011;63397;47.480;19.238;2023-03-29T04:27:15;1.47;;;0.67;;
74849;SDS011;63397;47.480;19.238;2023-03-29T04:30:18;0.50;;;0.30;;
74849;SDS011;63397;47.480;19.238;2023-03-29T04:33:44;3.50;;;0.70;;
74849;SDS011;63397;47.480;19.238;2023-03-29T04:36:49;1.65;;;0.98;;
74849;SDS011;63397;47.480;19.238;2023-03-29T04:39:56;1.20;;;0.30;;
74849;SDS011;63397;47.480;19.238;2023-03-29T04:43:04;0.63;;;0.37;;
74849;SDS011;63397;47.480;19.238;2023-03-29T04:46:08;0.93;;;0.50;;
74849;SDS011;63397;47.480;19.238;2023-03-29T04:49:29;1.77;;;0.70;;
74849;SDS011;63397;47.480;19.238;2023-03-29T04:52:33;1.95;;;0.93;;
74849;SDS011;63397;47.480;19.238;2023-03-29T04:55:37;0.93;;;0.47;;
74849;SDS011;63397;47.480;19.238;2023-03-29T04:58:42;0.63;;;0.13;;
74849;SDS011;63397;47.480;19.238;2023-03-29T05:01:46;2.03;;;0.75;;
74849;SDS011;63397;47.480;19.238;2023-03-29T05:04:48;1.20;;;0.50;;
74849;SDS011;63397;47.480;19.238;2023-03-29T05:07:52;1.75;;;0.55;;
74849;SDS011;63397;47.480;19.238;2023-03-29T05:11:01;1.97;;;0.73;;
74849;SDS011;63397;47.480;19.238;2023-03-29T05:14:03;1.63;;;0.70;;
74849;SDS011;63397;47.480;19.238;2023-03-29T05:17:08;1.83;;;0.45;;
74849;SDS011;63397;47.480;19.238;2023-03-29T05:20:11;1.20;;;0.50;;
74849;SDS011;63397;47.480;19.238;2023-03-29T05:23:16;2.20;;;0.77;;
74849;SDS011;63397;47.480;19.238;2023-03-29T05:26:39;2.30;;;1.20;;
74849;SDS011;63397;47.480;19.238;2023-03-29T05:29:42;1.97;;;0.80;;
74849;SDS011;63397;47.480;19.238;2023-03-29T05:33:07;1.85;;;0.60;;
74849;SDS011;63397;47.480;19.238;2023-03-29T05:36:10;3.53;;;1.08;;
74849;SDS011;63397;47.480;19.238;2023-03-29T05:39:19;1.88;;;0.90;;
74849;SDS011;63397;47.480;19.238;2023-03-29T05:42:22;3.30;;;1.67;;
74849;SDS011;63397;47.480;19.238;2023-03-29T05:45:34;3.60;;;0.93;;
74849;SDS011;63397;47.480;19.238;2023-03-29T05:48:38;3.20;;;0.90;;
74849;SDS011;63397;47.480;19.238;2023-03-29T05:51:42;2.22;;;0.80;;
74849;SDS011;63397;47.480;19.238;2023-03-29T05:55:06;2.65;;;1.23;;
74849;SDS011;63397;47.480;19.238;2023-03-29T05:58:12;2.80;;;1.33;;
74849;SDS011;63397;47.480;19.238;2023-03-29T06:01:18;3.83;;;1.13;;
74849;SDS011;63397;47.480;19.238;2023-03-29T06:04:35;3.17;;;1.42;;
74849;SDS011;63397;47.480;19.238;2023-03-29T06:08:13;3.72;;;1.00;;
74849;SDS011;63397;47.480;19.238;2023-03-29T06:11:28;4.45;;;1.13;;
74849;SDS011;63397;47.480;19.238;2023-03-29T06:14:44;9.07;;;1.27;;
74849;SDS011;63397;47.480;19.238;2023-03-29T06:18:04;3.67;;;1.20;;
74849;SDS011;63397;47.480;19.238;2023-03-29T06:21:10;2.67;;;1.08;;
74849;SDS011;63397;47.480;19.238;2023-03-29T06:24:13;5.13;;;1.77;;
74849;SDS011;63397;47.480;19.238;2023-03-29T06:27:23;2.50;;;0.70;;
74849;SDS011;63397;47.480;19.238;2023-03-29T06:30:28;4.30;;;1.33;;
74849;SDS011;63397;47.480;19.238;2023-03-29T06:33:32;3.13;;;1.17;;
74849;SDS011;63397;47.480;19.238;2023-03-29T06:36:59;8.70;;;1.80;;
74849;SDS011;63397;47.480;19.238;2023-03-29T06:40:01;2.83;;;1.10;;
74849;SDS011;63397;47.480;19.238;2023-03-29T06:43:15;5.43;;;1.45;;
74849;SDS011;63397;47.480;19.238;2023-03-29T06:46:42;3.65;;;1.40;;
74849;SDS011;63397;47.480;19.238;2023-03-29T06:49:45;5.70;;;1.50;;
74849;SDS011;63397;47.480;19.238;2023-03-29T06:53:03;2.95;;;1.20;;
74849;SDS011;63397;47.480;19.238;2023-03-29T06:56:06;5.75;;;1.63;;
74849;SDS011;63397;47.480;19.238;2023-03-29T06:59:17;4.25;;;1.75;;
74849;SDS011;63397;47.480;19.238;2023-03-29T07:02:32;4.80;;;1.58;;
74849;SDS011;63397;47.480;19.238;2023-03-29T07:05:44;3.87;;;1.37;;
74849;SDS011;63397;47.480;19.238;2023-03-29T07:08:49;4.28;;;1.02;;
74849;SDS011;63397;47.480;19.238;2023-03-29T07:12:12;3.60;;;1.33;;
74849;SDS011;63397;47.480;19.238;2023-03-29T07:15:15;3.25;;;1.60;;
74849;SDS011;63397;47.480;19.238;2023-03-29T07:18:36;5.18;;;1.70;;
74849;SDS011;63397;47.480;19.238;2023-03-29T07:21:39;6.70;;;1.47;;
74849;SDS011;63397;47.480;19.238;2023-03-29T07:24:41;4.45;;;1.70;;
74849;SDS011;63397;47.480;19.238;2023-03-29T07:27:44;5.43;;;1.88;;
74849;SDS011;63397;47.480;19.238;2023-03-29T07:30:46;3.58;;;1.75;;
74849;SDS011;63397;47.480;19.238;2023-03-29T07:33:55;4.10;;;1.75;;
74849;SDS011;63397;47.480;19.238;2023-03-29T07:36:59;3.33;;;1.33;;
74849;SDS011;63397;47.480;19.238;2023-03-29T07:40:02;2.67;;;1.10;;
74849;SDS011;63397;47.480;19.238;2023-03-29T07:43:35;3.95;;;1.45;;
74849;SDS011;63397;47.480;19.238;2023-03-29T07:46:37;4.32;;;1.85;;
74849;SDS011;63397;47.480;19.238;2023-03-29T07:49:40;4.63;;;1.58;;
74849;SDS011;63397;47.480;19.238;2023-03-29T07:52:43;5.27;;;1.63;;
74849;SDS011;63397;47.480;19.238;2023-03-29T07:55:46;4.03;;;1.40;;
74849;SDS011;63397;47.480;19.238;2023-03-29T07:59:19;3.75;;;1.30;;
74849;SDS011;63397;47.480;19.238;2023-03-29T08:02:29;2.17;;;0.98;;
74849;SDS011;63397;47.480;19.238;2023-03-29T08:05:35;6.68;;;1.80;;
74849;SDS011;63397;47.480;19.238;2023-03-29T08:08:47;3.63;;;1.00;;
74849;SDS011;63397;47.480;19.238;2023-03-29T08:11:51;5.53;;;1.30;;
74849;SDS011;63397;47.480;19.238;2023-03-29T08:15:00;3.92;;;1.50;;
74849;SDS011;63397;47.480;19.238;2023-03-29T08:18:09;3.75;;;0.95;;
74849;SDS011;63397;47.480;19.238;2023-03-29T08:21:13;3.38;;;1.10;;
74849;SDS011;63397;47.480;19.238;2023-03-29T08:24:19;4.33;;;1.13;;
74849;SDS011;63397;47.480;19.238;2023-03-29T08:27:26;2.60;;;1.27;;
74849;SDS011;63397;47.480;19.238;2023-03-29T08:30:30;2.80;;;0.90;;
74849;SDS011;63397;47.480;19.238;2023-03-29T08:33:32;4.53;;;1.27;;
74849;SDS011;63397;47.480;19.238;2023-03-29T08:36:55;2.22;;;0.90;;
74849;SDS011;63397;47.480;19.238;2023-03-29T08:40:05;2.70;;;1.20;;
74849;SDS011;63397;47.480;19.238;2023-03-29T08:46:59;2.38;;;0.90;;
74849;SDS011;63397;47.480;19.238;2023-03-29T08:50:11;2.03;;;0.95;;
74849;SDS011;63397;47.480;19.238;2023-03-29T08:56:42;4.07;;;1.07;;
74849;SDS011;63397;47.480;19.238;2023-03-29T08:59:56;1.67;;;0.77;;
74849;SDS011;63397;47.480;19.238;2023-03-29T09:02:59;1.92;;;0.63;;
74849;SDS011;63397;47.480;19.238;2023-03-29T09:06:05;1.13;;;0.43;;
74849;SDS011;63397;47.480;19.238;2023-03-29T09:09:13;2.95;;;0.90;;
74849;SDS011;63397;47.480;19.238;2023-03-29T09:12:26;1.90;;;0.73;;
74849;SDS011;63397;47.480;19.238;2023-03-29T09:15:40;3.63;;;0.73;;
74849;SDS011;63397;47.480;19.238;2023-03-29T09:25:54;2.35;;;0.70;;
74849;SDS011;63397;47.480;19.238;2023-03-29T09:29:33;1.97;;;0.80;;
74849;SDS011;63397;47.480;19.238;2023-03-29T09:35:48;2.33;;;0.70;;
74849;SDS011;63397;47.480;19.238;2023-03-29T09:38:53;1.42;;;0.40;;
74849;SDS011;63397;47.480;19.238;2023-03-29T09:42:03;2.00;;;0.60;;
74849;SDS011;63397;47.480;19.238;2023-03-29T09:45:07;1.57;;;0.40;;
74849;SDS011;63397;47.480;19.238;2023-03-29T09:48:18;1.52;;;0.50;;
74849;SDS011;63397;47.480;19.238;2023-03-29T09:51:32;2.22;;;0.57;;
74849;SDS011;63397;47.480;19.238;2023-03-29T09:54:38;2.55;;;0.70;;
74849;SDS011;63397;47.480;19.238;2023-03-29T10:01:18;1.33;;;0.50;;
74849;SDS011;63397;47.480;19.238;2023-03-29T10:04:23;1.10;;;0.30;;
74849;SDS011;63397;47.480;19.238;2023-03-29T10:07:33;1.67;;;0.45;;
74849;SDS011;63397;47.480;19.238;2023-03-29T10:10:38;1.75;;;0.60;;
74849;SDS011;63397;47.480;19.238;2023-03-29T10:13:45;2.03;;;0.90;;
74849;SDS011;63397;47.480;19.238;2023-03-29T10:16:53;4.27;;;0.70;;
74849;SDS011;63397;47.480;19.238;2023-03-29T10:19:56;2.53;;;0.75;;
74849;SDS011;63397;47.480;19.238;2023-03-29T10:23:00;1.55;;;0.47;;
74849;SDS011;63397;47.480;19.238;2023-03-29T10:26:03;2.25;;;0.70;;
74849;SDS011;63397;47.480;19.238;2023-03-29T10:29:08;1.25;;;0.52;;
74849;SDS011;63397;47.480;19.238;2023-03-29T10:32:21;2.60;;;0.67;;
74849;SDS011;63397;47.480;19.238;2023-03-29T10:35:29;2.65;;;0.90;;
74849;SDS011;63397;47.480;19.238;2023-03-29T10:38:33;1.67;;;0.80;;
74849;SDS011;63397;47.480;19.238;2023-03-29T10:41:36;2.92;;;1.00;;
74849;SDS011;63397;47.480;19.238;2023-03-29T10:44:40;2.47;;;0.95;;
74849;SDS011;63397;47.480;19.238;2023-03-29T10:47:43;2.87;;;0.93;;
74849;SDS011;63397;47.480;19.238;2023-03-29T10:50:49;2.40;;;0.60;;
74849;SDS011;63397;47.480;19.238;2023-03-29T10:53:55;2.83;;;0.82;;
74849;SDS011;63397;47.480;19.238;2023-03-29T10:56:58;3.33;;;0.98;;
74849;SDS011;63397;47.480;19.238;2023-03-29T11:00:05;2.92;;;1.00;;
74849;SDS011;63397;47.480;19.238;2023-03-29T11:06:33;2.90;;;0.85;;
74849;SDS011;63397;47.480;19.238;2023-03-29T11:16:09;3.15;;;0.77;;
74849;SDS011;63397;47.480;19.238;2023-03-29T11:22:39;2.95;;;0.93;;
74849;SDS011;63397;47.480;19.238;2023-03-29T11:28:54;1.70;;;0.70;;
74849;SDS011;63397;47.480;19.238;2023-03-29T11:41:17;3.83;;;1.17;;
74849;SDS011;63397;47.480;19.238;2023-03-29T11:44:21;3.00;;;1.05;;
74849;SDS011;63397;47.480;19.238;2023-03-29T11:47:26;3.72;;;1.20;;
74849;SDS011;63397;47.480;19.238;2023-03-29T11:50:39;2.13;;;0.73;;
74849;SDS011;63397;47.480;19.238;2023-03-29T11:53:47;3.03;;;0.98;;
74849;SDS011;63397;47.480;19.238;2023-03-29T11:56:55;2.67;;;0.93;;
74849;SDS011;63397;47.480;19.238;2023-03-29T12:00:47;2.50;;;0.93;;
74849;SDS011;63397;47.480;19.238;2023-03-29T12:03:42;5.20;;;1.23;;
74849;SDS011;63397;47.480;19.238;2023-03-29T12:06:57;2.37;;;1.07;;
74849;SDS011;63397;47.480;19.238;2023-03-29T12:10:04;3.42;;;0.93;;
74849;SDS011;63397;47.480;19.238;2023-03-29T12:13:11;2.35;;;1.02;;
74849;SDS011;63397;47.480;19.238;2023-03-29T12:16:17;2.25;;;0.85;;
74849;SDS011;63397;47.480;19.238;2023-03-29T12:19:20;4.07;;;1.10;;
74849;SDS011;63397;47.480;19.238;2023-03-29T12:22:24;2.33;;;0.70;;
74849;SDS011;63397;47.480;19.238;2023-03-29T12:25:33;2.80;;;1.00;;
74849;SDS011;63397;47.480;19.238;2023-03-29T12:38:45;3.90;;;1.40;;
74849;SDS011;63397;47.480;19.238;2023-03-29T12:42:21;1.98;;;0.70;;
74849;SDS011;63397;47.480;19.238;2023-03-29T12:45:43;2.50;;;1.13;;
74849;SDS011;63397;47.480;19.238;2023-03-29T12:48:56;4.10;;;1.20;;
74849;SDS011;63397;47.480;19.238;2023-03-29T12:51:59;2.50;;;0.98;;
74849;SDS011;63397;47.480;19.238;2023-03-29T12:55:15;5.97;;;1.40;;
74849;SDS011;63397;47.480;19.238;2023-03-29T13:01:30;2.70;;;1.10;;
74849;SDS011;63397;47.480;19.238;2023-03-29T13:04:35;4.32;;;1.13;;
74849;SDS011;63397;47.480;19.238;2023-03-29T13:07:45;5.45;;;1.52;;
74849;SDS011;63397;47.480;19.238;2023-03-29T13:10:52;2.47;;;1.00;;
74849;SDS011;63397;47.480;19.238;2023-03-29T13:13:54;2.28;;;0.75;;
74849;SDS011;63397;47.480;19.238;2023-03-29T13:17:02;3.72;;;1.10;;
74849;SDS011;63397;47.480;19.238;2023-03-29T13:29:48;2.15;;;0.80;;
74849;SDS011;63397;47.480;19.238;2023-03-29T13:36:52;3.85;;;1.38;;
74849;SDS011;63397;47.480;19.238;2023-03-29T13:39:59;3.72;;;1.60;;
74849;SDS011;63397;47.480;19.238;2023-03-29T13:49:42;4.93;;;1.48;;
74849;SDS011;63397;47.480;19.238;2023-03-29T13:52:50;3.83;;;1.63;;
74849;SDS011;63397;47.480;19.238;2023-03-29T13:55:58;6.13;;;1.80;;
74849;SDS011;63397;47.480;19.238;2023-03-29T14:05:31;4.57;;;1.42;;
74849;SDS011;63397;47.480;19.238;2023-03-29T14:08:38;5.32;;;1.90;;
74849;SDS011;63397;47.480;19.238;2023-03-29T14:11:42;3.60;;;1.60;;
74849;SDS011;63397;47.480;19.238;2023-03-29T14:14:45;4.20;;;2.03;;
74849;SDS011;63397;47.480;19.238;2023-03-29T14:18:00;5.18;;;1.73;;
74849;SDS011;63397;47.480;19.238;2023-03-29T14:21:02;6.75;;;1.60;;
74849;SDS011;63397;47.480;19.238;2023-03-29T14:24:07;4.65;;;1.30;;
74849;SDS011;63397;47.480;19.238;2023-03-29T14:27:11;2.88;;;1.10;;
74849;SDS011;63397;47.480;19.238;2023-03-29T14:30:25;3.53;;;1.70;;
74849;SDS011;63397;47.480;19.238;2023-03-29T14:33:29;4.38;;;1.60;;
74849;SDS011;63397;47.480;19.238;2023-03-29T14:36:33;4.15;;;1.40;;
74849;SDS011;63397;47.480;19.238;2023-03-29T14:39:35;3.80;;;1.75;;
74849;SDS011;63397;47.480;19.238;2023-03-29T14:42:38;5.22;;;1.83;;
74849;SDS011;63397;47.480;19.238;2023-03-29T14:45:42;5.97;;;2.20;;
74849;SDS011;63397;47.480;19.238;2023-03-29T14:48:44;4.95;;;1.80;;
74849;SDS011;63397;47.480;19.238;2023-03-29T14:51:47;4.05;;;1.50;;
74849;SDS011;63397;47.480;19.238;2023-03-29T14:54:51;4.60;;;1.60;;
74849;SDS011;63397;47.480;19.238;2023-03-29T14:57:54;4.03;;;1.73;;
74849;SDS011;63397;47.480;19.238;2023-03-29T15:00:57;2.90;;;1.40;;
74849;SDS011;63397;47.480;19.238;2023-03-29T15:04:06;5.20;;;1.60;;
74849;SDS011;63397;47.480;19.238;2023-03-29T15:07:09;6.68;;;1.92;;
74849;SDS011;63397;47.480;19.238;2023-03-29T15:10:17;4.18;;;1.52;;
74849;SDS011;63397;47.480;19.238;2023-03-29T15:13:20;4.35;;;1.77;;
74849;SDS011;63397;47.480;19.238;2023-03-29T15:16:25;3.73;;;1.40;;
74849;SDS011;63397;47.480;19.238;2023-03-29T15:19:28;4.55;;;1.55;;
74849;SDS011;63397;47.480;19.238;2023-03-29T15:22:32;4.50;;;1.60;;
74849;SDS011;63397;47.480;19.238;2023-03-29T15:25:36;4.82;;;1.63;;
74849;SDS011;63397;47.480;19.238;2023-03-29T15:28:46;3.88;;;1.40;;
74849;SDS011;63397;47.480;19.238;2023-03-29T15:31:52;4.13;;;1.60;;
74849;SDS011;63397;47.480;19.238;2023-03-29T15:34:59;4.45;;;1.33;;
74849;SDS011;63397;47.480;19.238;2023-03-29T15:38:02;4.97;;;1.70;;
74849;SDS011;63397;47.480;19.238;2023-03-29T15:41:06;4.15;;;1.30;;
74849;SDS011;63397;47.480;19.238;2023-03-29T15:44:09;4.05;;;1.50;;
74849;SDS011;63397;47.480;19.238;2023-03-29T15:47:12;4.90;;;1.43;;
74849;SDS011;63397;47.480;19.238;2023-03-29T15:50:14;2.65;;;1.13;;
74849;SDS011;63397;47.480;19.238;2023-03-29T15:53:16;3.53;;;1.20;;
74849;SDS011;63397;47.480;19.238;2023-03-29T15:56:21;3.75;;;1.35;;
74849;SDS011;63397;47.480;19.238;2023-03-29T15:59:23;5.00;;;1.45;;
74849;SDS011;63397;47.480;19.238;2023-03-29T16:02:26;3.37;;;1.40;;
74849;SDS011;63397;47.480;19.238;2023-03-29T16:05:29;6.35;;;1.60;;
74849;SDS011;63397;47.480;19.238;2023-03-29T16:08:31;4.88;;;1.60;;
74849;SDS011;63397;47.480;19.238;2023-03-29T16:11:33;5.65;;;1.73;;
74849;SDS011;63397;47.480;19.238;2023-03-29T16:14:36;4.70;;;1.52;;
74849;SDS011;63397;47.480;19.238;2023-03-29T16:17:38;3.70;;;1.60;;
74849;SDS011;63397;47.480;19.238;2023-03-29T16:20:41;3.97;;;1.75;;
74849;SDS011;63397;47.480;19.238;2023-03-29T16:23:44;3.17;;;1.60;;
74849;SDS011;63397;47.480;19.238;2023-03-29T16:26:47;4.22;;;1.30;;
74849;SDS011;63397;47.480;19.238;2023-03-29T16:29:49;6.60;;;1.42;;
74849;SDS011;63397;47.480;19.238;2023-03-29T16:32:51;2.53;;;1.20;;
74849;SDS011;63397;47.480;19.238;2023-03-29T16:35:54;3.17;;;1.35;;
74849;SDS011;63397;47.480;19.238;2023-03-29T16:38:57;7.05;;;1.58;;
74849;SDS011;63397;47.480;19.238;2023-03-29T16:41:59;4.53;;;1.67;;
74849;SDS011;63397;47.480;19.238;2023-03-29T16:45:02;3.95;;;1.65;;
74849;SDS011;63397;47.480;19.238;2023-03-29T16:48:04;7.13;;;1.47;;
74849;SDS011;63397;47.480;19.238;2023-03-29T16:51:08;4.88;;;1.65;;
74849;SDS011;63397;47.480;19.238;2023-03-29T16:54:10;4.18;;;1.50;;
74849;SDS011;63397;47.480;19.238;2023-03-29T16:57:12;5.47;;;1.75;;
74849;SDS011;63397;47.480;19.238;2023-03-29T17:00:15;5.25;;;1.98;;
74849;SDS011;63397;47.480;19.238;2023-03-29T17:03:20;5.77;;;2.20;;
74849;SDS011;63397;47.480;19.238;2023-03-29T17:06:22;5.85;;;2.00;;
74849;SDS011;63397;47.480;19.238;2023-03-29T17:09:25;4.93;;;2.10;;
74849;SDS011;63397;47.480;19.238;2023-03-29T17:12:30;4.47;;;1.95;;
74849;SDS011;63397;47.480;19.238;2023-03-29T17:15:33;3.88;;;1.42;;
74849;SDS011;63397;47.480;19.238;2023-03-29T17:18:37;3.90;;;1.33;;
74849;SDS011;63397;47.480;19.238;2023-03-29T17:21:40;5.70;;;2.13;;
74849;SDS011;63397;47.480;19.238;2023-03-29T17:24:42;7.50;;;2.42;;
74849;SDS011;63397;47.480;19.238;2023-03-29T17:27:44;7.65;;;3.15;;
74849;SDS011;63397;47.480;19.238;2023-03-29T17:30:47;9.65;;;3.42;;
74849;SDS011;63397;47.480;19.238;2023-03-29T17:33:50;6.90;;;2.90;;
74849;SDS011;63397;47.480;19.238;2023-03-29T17:36:53;6.55;;;3.00;;
74849;SDS011;63397;47.480;19.238;2023-03-29T17:39:56;8.95;;;3.13;;
74849;SDS011;63397;47.480;19.238;2023-03-29T17:42:58;12.18;;;3.90;;
74849;SDS011;63397;47.480;19.238;2023-03-29T17:46:00;10.38;;;3.83;;
74849;SDS011;63397;47.480;19.238;2023-03-29T17:49:03;11.43;;;3.73;;
74849;SDS011;63397;47.480;19.238;2023-03-29T17:52:06;12.30;;;4.78;;
74849;SDS011;63397;47.480;19.238;2023-03-29T17:55:09;18.08;;;5.40;;
74849;SDS011;63397;47.480;19.238;2023-03-29T17:58:14;7.78;;;3.60;;
74849;SDS011;63397;47.480;19.238;2023-03-29T18:01:17;18.73;;;4.82;;
74849;SDS011;63397;47.480;19.238;2023-03-29T18:04:23;10.47;;;4.73;;
74849;SDS011;63397;47.480;19.238;2023-03-29T18:07:26;9.88;;;3.85;;
74849;SDS011;63397;47.480;19.238;2023-03-29T18:10:28;11.25;;;3.45;;
74849;SDS011;63397;47.480;19.238;2023-03-29T18:13:31;9.30;;;3.83;;
74849;SDS011;63397;47.480;19.238;2023-03-29T18:16:33;12.38;;;4.85;;
74849;SDS011;63397;47.480;19.238;2023-03-29T18:19:35;12.43;;;4.30;;
74849;SDS011;63397;47.480;19.238;2023-03-29T18:22:38;10.65;;;4.13;;
74849;SDS011;63397;47.480;19.238;2023-03-29T18:25:41;12.30;;;5.47;;
74849;SDS011;63397;47.480;19.238;2023-03-29T18:28:44;12.43;;;4.15;;
74849;SDS011;63397;47.480;19.238;2023-03-29T18:31:48;9.45;;;3.80;;
74849;SDS011;63397;47.480;19.238;2023-03-29T18:34:50;16.20;;;4.70;;
74849;SDS011;63397;47.480;19.238;2023-03-29T18:37:53;12.25;;;4.72;;
74849;SDS011;63397;47.480;19.238;2023-03-29T18:40:55;13.30;;;4.90;;
74849;SDS011;63397;47.480;19.238;2023-03-29T18:43:58;14.35;;;5.60;;
74849;SDS011;63397;47.480;19.238;2023-03-29T18:47:01;11.57;;;4.45;;
74849;SDS011;63397;47.480;19.238;2023-03-29T18:50:04;11.23;;;3.93;;
74849;SDS011;63397;47.480;19.238;2023-03-29T18:53:06;10.30;;;4.05;;
74849;SDS011;63397;47.480;19.238;2023-03-29T18:56:09;8.90;;;3.03;;
74849;SDS011;63397;47.480;19.238;2023-03-29T18:59:12;13.63;;;3.25;;
74849;SDS011;63397;47.480;19.238;2023-03-29T19:02:14;6.43;;;2.40;;
74849;SDS011;63397;47.480;19.238;2023-03-29T19:05:17;5.33;;;2.20;;
74849;SDS011;63397;47.480;19.238;2023-03-29T19:08:20;5.00;;;1.80;;
74849;SDS011;63397;47.480;19.238;2023-03-29T19:11:23;6.57;;;1.80;;
74849;SDS011;63397;47.480;19.238;2023-03-29T19:14:28;3.65;;;1.70;;
74849;SDS011;63397;47.480;19.238;2023-03-29T19:17:31;4.68;;;1.80;;
74849;SDS011;63397;47.480;19.238;2023-03-29T19:20:34;4.60;;;1.53;;
74849;SDS011;63397;47.480;19.238;2023-03-29T19:23:37;5.95;;;1.90;;
74849;SDS011;63397;47.480;19.238;2023-03-29T19:26:40;4.13;;;1.75;;
74849;SDS011;63397;47.480;19.238;2023-03-29T19:29:42;4.07;;;1.27;;
74849;SDS011;63397;47.480;19.238;2023-03-29T19:32:45;3.38;;;1.38;;
74849;SDS011;63397;47.480;19.238;2023-03-29T19:35:48;3.20;;;1.47;;
74849;SDS011;63397;47.480;19.238;2023-03-29T19:38:50;5.35;;;1.60;;
74849;SDS011;63397;47.480;19.238;2023-03-29T19:41:53;5.35;;;1.95;;
74849;SDS011;63397;47.480;19.238;2023-03-29T19:44:56;10.82;;;3.15;;
74849;SDS011;63397;47.480;19.238;2023-03-29T19:47:58;8.68;;;3.53;;
74849;SDS011;63397;47.480;19.238;2023-03-29T19:51:05;9.83;;;3.97;;
74849;SDS011;63397;47.480;19.238;2023-03-29T19:54:07;11.20;;;4.65;;
74849;SDS011;63397;47.480;19.238;2023-03-29T19:57:10;12.38;;;4.22;;
74849;SDS011;63397;47.480;19.238;2023-03-29T20:00:13;10.07;;;4.25;;
74849;SDS011;63397;47.480;19.238;2023-03-29T20:03:16;12.43;;;3.45;;